Time;durP1;ratioP1;P1;durP2;ratioP2;P2;SDS_P1;SDS_P2;PMS_P1;PMS_P2;Temp;Humidity;BMP_temperature;BMP_pressure;BME280_temperature;BME280_humidity;BME280_pressure;Samples;Min_cycle;Max_cycle;Signal;HPM_P1;HPM_P2
2022/08/01 00:01:16;;;;;;;;;13.33;12.00;;;;;20.96;57.07;100586.92;110787;1258;19706;-59
2022/08/01 00:03:43;;;;;;;;;13.50;13.00;;;;;20.88;57.08;100587.70;110621;1258;20314;-55
2022/08/01 00:06:11;;;;;;;;;12.33;12.33;;;;;20.92;57.27;100590.02;110589;1258;23649;-52
2022/08/01 00:08:38;;;;;;;;;12.00;12.00;;;;;20.87;57.31;100588.77;110697;1258;19733;-57
2022/08/01 00:11:06;;;;;;;;;13.33;13.00;;;;;20.87;57.28;100592.58;110644;1258;20411;-58
2022/08/01 00:13:33;;;;;;;;;13.33;12.33;;;;;20.87;57.11;100592.17;110661;1258;19258;-54
2022/08/01 00:16:00;;;;;;;;;14.00;14.00;;;;;20.80;57.36;100590.09;110635;1258;19628;-57
2022/08/01 00:18:28;;;;;;;;;14.67;14.00;;;;;20.77;57.45;100592.27;110783;1257;20348;-55
2022/08/01 00:20:55;;;;;;;;;13.00;12.33;;;;;20.73;57.43;100585.68;110655;1258;23156;-54
2022/08/01 00:23:23;;;;;;;;;12.00;12.00;;;;;20.74;57.42;100589.19;110670;1258;19593;-55
2022/08/01 00:25:50;;;;;;;;;14.00;13.33;;;;;20.72;57.44;100590.15;110560;1259;20364;-52
2022/08/01 00:28:17;;;;;;;;;12.67;12.00;;;;;20.72;57.28;100587.94;110761;1258;19279;-54
2022/08/01 00:30:45;;;;;;;;;13.67;12.00;;;;;20.71;57.22;100588.15;110767;1258;23199;-54
2022/08/01 00:33:12;;;;;;;;;11.33;10.00;;;;;20.63;57.13;100587.63;110794;1258;20362;-54
2022/08/01 00:35:40;;;;;;;;;14.67;13.33;;;;;20.62;57.18;100592.42;110572;1258;19301;-55
2022/08/01 00:38:07;;;;;;;;;13.00;13.00;;;;;20.62;57.32;100586.06;110746;1258;23196;-57
2022/08/01 00:40:34;;;;;;;;;13.67;13.00;;;;;20.62;57.40;100586.43;110739;1258;22118;-58
2022/08/01 00:43:02;;;;;;;;;13.00;13.00;;;;;20.63;57.46;100587.59;110777;1258;19120;-56
2022/08/01 00:45:29;;;;;;;;;12.67;12.67;;;;;20.63;57.37;100588.92;110771;1258;19633;-54
2022/08/01 00:47:56;;;;;;;;;13.00;13.00;;;;;20.61;57.31;100590.36;110714;1258;20488;-55
2022/08/01 00:50:24;;;;;;;;;13.67;13.67;;;;;20.60;57.47;100590.16;110697;1258;19253;-56
2022/08/01 00:52:51;;;;;;;;;13.00;13.00;;;;;20.55;57.35;100585.64;110709;1256;19643;-57
2022/08/01 00:55:19;;;;;;;;;13.67;13.33;;;;;20.63;57.19;100578.02;110754;1257;20254;-54
2022/08/01 00:57:46;;;;;;;;;13.67;12.67;;;;;20.56;57.18;100579.33;110753;1258;24447;-57
2022/08/01 01:00:13;;;;;;;;;12.00;12.00;;;;;20.60;57.29;100580.94;110787;1258;19728;-58
2022/08/01 01:02:41;;;;;;;;;13.00;11.33;;;;;20.59;57.20;100577.78;110624;1258;20365;-57
2022/08/01 01:05:08;;;;;;;;;13.00;13.00;;;;;20.58;57.28;100583.70;110713;1257;19305;-56
2022/08/01 01:07:36;;;;;;;;;12.50;12.00;;;;;20.55;57.19;100584.74;110563;1258;21069;-56
2022/08/01 01:10:04;;;;;;;;;14.67;13.00;;;;;20.49;57.26;100583.36;110723;1258;20342;-55
2022/08/01 01:12:31;;;;;;;;;11.33;11.33;;;;;20.46;57.18;100589.31;110732;1258;23376;-56
2022/08/01 01:14:59;;;;;;;;;13.00;13.00;;;;;20.52;57.12;100585.96;110453;1259;19748;-57
2022/08/01 01:17:27;;;;;;;;;14.00;13.33;;;;;20.46;57.30;100581.97;110741;1257;22991;-58
2022/08/01 01:19:54;;;;;;;;;14.50;14.00;;;;;20.46;57.36;100578.24;110717;1258;23005;-55
2022/08/01 01:22:21;;;;;;;;;16.00;16.00;;;;;20.44;57.58;100577.95;110710;1258;19670;-55
2022/08/01 01:24:48;;;;;;;;;16.00;13.00;;;;;20.46;57.56;100577.36;110599;1258;20669;-54
2022/08/01 01:27:16;;;;;;;;;16.50;16.50;;;;;20.49;57.42;100579.27;110728;1258;19217;-54
2022/08/01 01:29:43;;;;;;;;;16.00;16.00;;;;;20.50;57.54;100580.00;110443;1259;19652;-54
2022/08/01 01:32:11;;;;;;;;;14.00;14.00;;;;;20.51;57.32;100577.77;110741;1257;20270;-56
2022/08/01 01:34:38;;;;;;;;;14.33;14.00;;;;;20.40;57.85;100573.88;110623;1258;19106;-57
2022/08/01 01:37:06;;;;;;;;;13.67;13.00;;;;;20.40;57.62;100570.89;110733;1258;19560;-57
2022/08/01 01:39:33;;;;;;;;;13.33;13.33;;;;;20.31;57.94;100568.58;110815;1258;20337;-55
2022/08/01 01:42:00;;;;;;;;;13.33;13.00;;;;;20.34;57.63;100571.56;110771;1258;23876;-54
2022/08/01 01:44:27;;;;;;;;;13.67;13.33;;;;;20.37;57.64;100570.99;110761;1258;19577;-54
2022/08/01 01:46:55;;;;;;;;;15.33;12.67;;;;;20.39;57.55;100571.05;110757;1258;23616;-58
2022/08/01 01:49:22;;;;;;;;;13.50;13.00;;;;;20.33;57.60;100568.77;110763;1257;19183;-57
2022/08/01 01:51:49;;;;;;;;;14.00;14.00;;;;;20.27;57.74;100571.96;110738;1258;19516;-54
2022/08/01 01:54:17;;;;;;;;;17.33;16.33;;;;;20.22;58.05;100573.48;110799;1258;20176;-56
2022/08/01 01:56:49;;;;;;;;;20.00;16.00;;;;;20.24;57.63;100572.14;110593;1258;19906;-57
2022/08/01 01:59:16;;;;;;;;;14.00;14.00;;;;;20.16;58.20;100569.80;110685;1258;21891;-58
2022/08/01 02:01:44;;;;;;;;;16.00;14.67;;;;;20.18;58.12;100573.61;110675;1258;23266;-55
2022/08/01 02:04:11;;;;;;;;;15.50;15.50;;;;;20.27;57.81;100570.20;110622;1258;19170;-57
2022/08/01 02:06:39;;;;;;;;;17.00;16.00;;;;;20.27;57.81;100576.50;110741;1258;19741;-58
2022/08/01 02:09:06;;;;;;;;;17.00;16.00;;;;;20.19;58.13;100577.65;111576;1258;20346;-58
2022/08/01 02:11:33;;;;;;;;;16.00;16.00;;;;;20.19;57.90;100576.02;110764;1258;19266;-53
2022/08/01 02:14:01;;;;;;;;;16.00;14.67;;;;;20.27;57.97;100572.34;110788;1258;19807;-55
2022/08/01 02:16:28;;;;;;;;;17.00;16.00;;;;;20.24;57.77;100569.39;110602;1258;20337;-54
2022/08/01 02:18:55;;;;;;;;;15.00;14.00;;;;;20.21;57.72;100568.59;110668;1258;22901;-59
2022/08/01 02:21:23;;;;;;;;;16.00;14.00;;;;;20.18;57.64;100568.48;110765;1258;21653;-53
2022/08/01 02:23:51;;;;;;;;;18.33;16.33;;;;;20.17;57.85;100568.72;110667;1258;20326;-55
2022/08/01 02:26:18;;;;;;;;;16.00;16.00;;;;;20.14;57.50;100565.36;110663;1258;23243;-53
2022/08/01 02:28:46;;;;;;;;;16.33;16.33;;;;;20.08;57.73;100560.80;110524;1259;19697;-54
2022/08/01 02:31:14;;;;;;;;;16.00;16.00;;;;;19.98;57.81;100563.31;110403;1259;20338;-54
2022/08/01 02:33:41;;;;;;;;;16.00;16.00;;;;;20.02;57.71;100562.72;110477;1260;19133;-53
2022/08/01 02:36:09;;;;;;;;;15.00;13.00;;;;;20.07;57.69;100561.61;110650;1258;19629;-56
2022/08/01 02:38:36;;;;;;;;;15.00;15.00;;;;;20.00;57.83;100561.48;110700;1258;20403;-55
2022/08/01 02:41:03;;;;;;;;;17.00;16.33;;;;;20.01;57.47;100567.38;110691;1258;19224;-55
2022/08/01 02:43:30;;;;;;;;;16.00;16.00;;;;;20.02;57.55;100568.84;110632;1258;19577;-54
2022/08/01 02:45:58;;;;;;;;;13.67;13.67;;;;;20.08;57.38;100568.52;110548;1259;23039;-58
2022/08/01 02:48:26;;;;;;;;;15.33;15.00;;;;;20.13;57.23;100565.57;110756;1258;19271;-56
2022/08/01 02:50:53;;;;;;;;;17.00;17.00;;;;;20.09;57.12;100567.38;110769;1258;22056;-54
2022/08/01 02:53:21;;;;;;;;;17.00;16.00;;;;;20.01;57.29;100573.17;110785;1258;20319;-55
2022/08/01 02:55:48;;;;;;;;;17.00;16.50;;;;;19.95;57.44;100569.11;110743;1258;20212;-55
2022/08/01 02:58:15;;;;;;;;;16.00;16.00;;;;;19.97;57.49;100568.52;110466;1258;19526;-57
2022/08/01 03:00:43;;;;;;;;;15.00;14.33;;;;;20.00;57.35;100570.94;110322;1259;21924;-53
2022/08/01 03:03:10;;;;;;;;;16.00;16.00;;;;;19.99;57.36;100570.87;110372;1261;19217;-55
2022/08/01 03:05:39;;;;;;;;;16.00;15.00;;;;;20.18;56.89;100570.84;110283;1261;19710;-51
2022/08/01 03:08:07;;;;;;;;;13.00;13.00;;;;;20.28;56.62;100569.89;110720;1258;20407;-53
2022/08/01 03:10:35;;;;;;;;;16.00;15.00;;;;;20.34;56.45;100571.52;110618;1258;19424;-51
2022/08/01 03:13:02;;;;;;;;;17.00;16.00;;;;;20.35;56.25;100579.07;110464;1261;19588;-54
2022/08/01 03:15:30;;;;;;;;;16.00;15.33;;;;;20.30;56.77;100574.84;110805;1258;20444;-54
2022/08/01 03:17:57;;;;;;;;;15.67;15.67;;;;;20.29;56.69;100578.67;110756;1258;24547;-56
2022/08/01 03:20:25;;;;;;;;;16.00;16.00;;;;;20.32;56.64;100574.66;110793;1258;19587;-55
2022/08/01 03:22:53;;;;;;;;;17.00;13.00;;;;;20.27;56.79;100571.38;110584;1258;20333;-54
2022/08/01 03:25:21;;;;;;;;;18.00;16.50;;;;;20.30;56.66;100567.42;110702;1258;19293;-57
2022/08/01 03:27:48;;;;;;;;;17.67;17.00;;;;;20.34;56.85;100567.92;110753;1258;19543;-54
2022/08/01 03:30:16;;;;;;;;;16.33;15.00;;;;;20.29;56.82;100566.98;110781;1258;20402;-57
2022/08/01 03:32:43;;;;;;;;;15.50;13.00;;;;;20.24;56.83;100564.34;110634;1258;19457;-55
2022/08/01 03:35:11;;;;;;;;;19.00;18.33;;;;;20.20;57.22;100569.00;110753;1258;19465;-55
2022/08/01 03:37:38;;;;;;;;;17.00;16.67;;;;;20.21;57.09;100566.34;110742;1258;24163;-55
2022/08/01 03:40:06;;;;;;;;;23.00;20.00;;;;;20.27;56.94;100566.39;110755;1258;19414;-56
2022/08/01 03:42:34;;;;;;;;;16.00;16.00;;;;;20.29;56.95;100571.21;110582;1259;19704;-55
2022/08/01 03:45:01;;;;;;;;;16.00;16.00;;;;;20.31;56.88;100570.33;110745;1257;20356;-53
2022/08/01 03:47:28;;;;;;;;;17.00;16.33;;;;;20.31;56.67;100573.13;110436;1259;24521;-55
2022/08/01 03:49:56;;;;;;;;;16.00;16.00;;;;;20.26;56.77;100569.55;110772;1258;19545;-55
2022/08/01 03:52:23;;;;;;;;;15.00;13.67;;;;;20.27;56.83;100571.21;110725;1258;23640;-55
2022/08/01 03:54:51;;;;;;;;;16.00;16.00;;;;;20.28;56.62;100570.23;110758;1257;19249;-57
2022/08/01 03:57:18;;;;;;;;;19.00;16.00;;;;;20.33;56.69;100571.11;110827;1257;23633;-57
2022/08/01 03:59:45;;;;;;;;;17.00;16.00;;;;;20.41;56.67;100571.12;110758;1258;20865;-58
2022/08/01 04:02:13;;;;;;;;;13.00;13.00;;;;;20.36;56.66;100571.81;110704;1258;19603;-54
2022/08/01 04:04:40;;;;;;;;;15.00;15.00;;;;;20.23;56.77;100574.77;110530;1258;23372;-55
2022/08/01 04:07:08;;;;;;;;;16.67;15.00;;;;;20.12;57.10;100578.23;110610;1258;20699;-56
2022/08/01 04:09:35;;;;;;;;;15.00;13.67;;;;;20.11;57.44;100578.91;110766;1258;22943;-54
2022/08/01 04:12:03;;;;;;;;;15.00;14.00;;;;;20.20;57.36;100580.03;110590;1259;19591;-57
2022/08/01 04:14:30;;;;;;;;;13.67;13.00;;;;;20.22;57.20;100581.58;110534;1259;20310;-53
2022/08/01 04:16:57;;;;;;;;;15.67;12.67;;;;;20.22;57.31;100581.11;110719;1258;23142;-55
2022/08/01 04:19:25;;;;;;;;;15.00;15.00;;;;;20.31;57.32;100583.01;110724;1258;19521;-55
2022/08/01 04:21:53;;;;;;;;;15.00;15.00;;;;;20.34;57.44;100578.84;110766;1258;20350;-55
2022/08/01 04:24:20;;;;;;;;;16.00;13.00;;;;;20.35;57.37;100576.99;110772;1258;22995;-57
2022/08/01 04:26:47;;;;;;;;;14.00;14.00;;;;;20.35;57.34;100575.06;110469;1258;19566;-56
2022/08/01 04:29:15;;;;;;;;;14.67;13.67;;;;;20.39;57.58;100576.36;110604;1258;20533;-56
2022/08/01 04:31:42;;;;;;;;;16.00;14.00;;;;;20.36;57.49;100575.30;110411;1259;19280;-57
2022/08/01 04:34:10;;;;;;;;;16.00;15.67;;;;;20.44;57.62;100572.13;110632;1258;21599;-55
2022/08/01 04:36:37;;;;;;;;;15.33;14.00;;;;;20.57;57.51;100567.45;110747;1258;20338;-57
2022/08/01 04:39:05;;;;;;;;;17.00;16.00;;;;;20.61;57.64;100569.45;110726;1258;19100;-55
2022/08/01 04:41:33;;;;;;;;;19.00;19.00;;;;;20.70;57.47;100566.98;110584;1258;19547;-53
2022/08/01 04:44:00;;;;;;;;;24.67;22.00;;;;;20.79;57.34;100567.33;110585;1259;20347;-57
2022/08/01 04:46:28;;;;;;;;;24.00;21.33;;;;;20.85;57.09;100567.80;110462;1258;19204;-56
2022/08/01 04:48:55;;;;;;;;;19.33;17.67;;;;;20.86;57.32;100572.01;110424;1259;24018;-56
2022/08/01 04:51:23;;;;;;;;;21.00;20.00;;;;;20.84;57.47;100570.77;110801;1258;20313;-56
2022/08/01 04:53:51;;;;;;;;;20.00;18.00;;;;;20.83;57.68;100571.09;110722;1258;19339;-57
2022/08/01 04:56:18;;;;;;;;;20.33;18.67;;;;;20.89;57.56;100578.86;110727;1258;19744;-54
2022/08/01 04:58:46;;;;;;;;;17.00;16.00;;;;;20.93;57.48;100581.63;110684;1258;22007;-54
2022/08/01 05:01:13;;;;;;;;;19.00;17.33;;;;;20.98;57.66;100579.77;110744;1258;19176;-56
2022/08/01 05:03:41;;;;;;;;;20.00;18.50;;;;;21.00;57.47;100578.65;110697;1258;19498;-54
2022/08/01 05:06:08;;;;;;;;;16.00;16.00;;;;;20.90;58.17;100584.04;110635;1258;20733;-52
2022/08/01 05:08:36;;;;;;;;;17.00;16.00;;;;;20.91;58.22;100579.36;110687;1257;19260;-57
2022/08/01 05:11:04;;;;;;;;;19.00;18.00;;;;;21.05;57.72;100584.77;110689;1258;19602;-55
2022/08/01 05:13:31;;;;;;;;;21.00;20.00;;;;;21.10;57.86;100590.04;110622;1258;20304;-55
2022/08/01 05:15:58;;;;;;;;;33.00;28.00;;;;;21.11;57.80;100588.23;110714;1258;24294;-57
2022/08/01 05:18:26;;;;;;;;;20.50;20.50;;;;;21.16;57.86;100588.80;110806;1257;19614;-57
2022/08/01 05:20:53;;;;;;;;;19.67;17.33;;;;;21.18;58.01;100586.34;110723;1258;20316;-55
2022/08/01 05:23:21;;;;;;;;;21.00;20.33;;;;;21.17;58.16;100587.88;110733;1258;19325;-55
2022/08/01 05:25:49;;;;;;;;;17.00;16.33;;;;;21.15;58.38;100585.61;110589;1258;19615;-54
2022/08/01 05:28:16;;;;;;;;;16.33;15.33;;;;;21.20;58.22;100588.80;110637;1258;23130;-56
2022/08/01 05:30:44;;;;;;;;;16.00;16.00;;;;;21.24;58.49;100587.45;110689;1258;19251;-58
2022/08/01 05:33:11;;;;;;;;;17.00;16.50;;;;;21.17;58.80;100590.80;110744;1258;19566;-54
2022/08/01 05:35:38;;;;;;;;;16.67;16.00;;;;;21.10;58.97;100589.67;110710;1258;22936;-57
2022/08/01 05:38:06;;;;;;;;;20.67;20.33;;;;;21.07;59.33;100588.67;110623;1257;19142;-57
2022/08/01 05:40:33;;;;;;;;;16.67;13.67;;;;;21.14;59.09;100589.54;110666;1258;19607;-54
2022/08/01 05:43:00;;;;;;;;;16.33;14.00;;;;;21.39;58.52;100590.91;110702;1257;23004;-56
2022/08/01 05:45:28;;;;;;;;;16.33;14.67;;;;;21.60;57.66;100587.67;110647;1258;19491;-53
2022/08/01 05:47:56;;;;;;;;;16.33;14.33;;;;;21.75;57.16;100591.95;110630;1258;19597;-60
2022/08/01 05:50:23;;;;;;;;;16.00;15.33;;;;;21.84;56.63;100586.16;110506;1258;20327;-57
2022/08/01 05:52:51;;;;;;;;;15.67;13.33;;;;;21.91;56.29;100583.86;110495;1258;19285;-56
2022/08/01 05:55:18;;;;;;;;;17.67;15.33;;;;;21.97;56.42;100585.70;110703;1258;19627;-57
2022/08/01 05:57:46;;;;;;;;;13.33;13.00;;;;;22.07;56.12;100580.58;110640;1258;21004;-57
2022/08/01 06:00:14;;;;;;;;;14.00;14.00;;;;;22.17;56.60;100581.27;110738;1258;19160;-59
2022/08/01 06:02:42;;;;;;;;;15.00;15.00;;;;;22.17;57.04;100579.75;110709;1258;23531;-55
2022/08/01 06:05:09;;;;;;;;;12.00;11.00;;;;;22.20;57.07;100579.04;110503;1258;20365;-55
2022/08/01 06:07:38;;;;;;;;;15.00;14.67;;;;;22.24;56.90;100580.36;110393;1259;22546;-58
2022/08/01 06:10:06;;;;;;;;;16.33;15.00;;;;;22.24;56.75;100571.76;110493;1258;23167;-55
2022/08/01 06:12:33;;;;;;;;;12.00;11.00;;;;;22.27;56.59;100575.27;110443;1258;20338;-58
2022/08/01 06:15:00;;;;;;;;;13.00;13.00;;;;;22.29;56.49;100578.73;110674;1258;19189;-56
2022/08/01 06:17:28;;;;;;;;;12.33;12.33;;;;;22.29;56.43;100573.15;110681;1258;19726;-55
2022/08/01 06:19:55;;;;;;;;;16.67;14.33;;;;;22.31;56.66;100578.69;110445;1258;20277;-55
2022/08/01 06:22:23;;;;;;;;;14.00;13.00;;;;;22.36;56.77;100573.58;110554;1258;19264;-55
2022/08/01 06:24:50;;;;;;;;;13.00;12.33;;;;;22.40;56.70;100576.56;110751;1258;19598;-55
2022/08/01 06:27:18;;;;;;;;;10.50;10.50;;;;;22.42;56.67;100573.16;110743;1258;20308;-56
2022/08/01 06:29:45;;;;;;;;;13.33;12.00;;;;;22.42;56.83;100569.20;110669;1258;19276;-53
2022/08/01 06:32:12;;;;;;;;;11.00;11.00;;;;;22.41;56.89;100568.34;110688;1258;19562;-57
2022/08/01 06:34:40;;;;;;;;;14.50;14.50;;;;;22.42;56.89;100571.90;110525;1259;20319;-56
2022/08/01 06:37:07;;;;;;;;;10.00;9.50;;;;;22.42;56.89;100572.69;110645;1258;19401;-57
2022/08/01 06:39:35;;;;;;;;;11.67;10.33;;;;;22.45;56.82;100570.41;110682;1258;19570;-53
2022/08/01 06:42:02;;;;;;;;;13.50;11.00;;;;;22.47;56.81;100570.55;110567;1258;20456;-59
2022/08/01 06:44:30;;;;;;;;;9.00;9.00;;;;;22.49;56.93;100573.58;110480;1258;23194;-56
2022/08/01 06:46:58;;;;;;;;;10.00;10.00;;;;;22.49;56.89;100578.45;110670;1258;19515;-55
2022/08/01 06:49:26;;;;;;;;;10.67;10.00;;;;;22.47;56.82;100576.69;110577;1258;20222;-56
2022/08/01 06:51:53;;;;;;;;;10.67;10.00;;;;;22.24;57.48;100577.38;110744;1258;19241;-57
2022/08/01 06:54:20;;;;;;;;;13.00;11.00;;;;;22.06;58.19;100579.80;110734;1258;23065;-58
2022/08/01 06:56:48;;;;;;;;;15.00;14.67;;;;;21.94;58.50;100580.93;110750;1258;21805;-54
2022/08/01 06:59:16;;;;;;;;;13.00;11.00;;;;;21.97;58.25;100575.88;110655;1258;19271;-56
2022/08/01 07:01:43;;;;;;;;;17.00;14.67;;;;;21.90;58.53;100579.44;110615;1258;19509;-56
2022/08/01 07:04:10;;;;;;;;;15.67;14.33;;;;;21.84;58.60;100580.45;110546;1257;20403;-55
2022/08/01 07:06:38;;;;;;;;;20.67;17.67;;;;;21.79;58.60;100579.36;110417;1259;19676;-56
2022/08/01 07:09:05;;;;;;;;;17.00;17.00;;;;;21.86;58.88;100576.83;110480;1259;19685;-54
2022/08/01 07:11:32;;;;;;;;;18.00;18.00;;;;;21.93;58.88;100576.75;110483;1259;23885;-54
2022/08/01 07:14:00;;;;;;;;;22.00;19.33;;;;;22.02;58.88;100577.19;110705;1258;19280;-55
2022/08/01 07:16:28;;;;;;;;;19.00;19.00;;;;;22.10;58.56;100575.27;110676;1258;23055;-55
2022/08/01 07:18:55;;;;;;;;;28.67;26.67;;;;;22.23;58.50;100576.44;110552;1258;20551;-54
2022/08/01 07:21:23;;;;;;;;;37.33;33.33;;;;;22.33;58.57;100570.84;110675;1258;24657;-56
2022/08/01 07:23:50;;;;;;;;;26.67;26.00;;;;;22.26;58.93;100572.65;110526;1258;19735;-57
2022/08/01 07:26:17;;;;;;;;;24.00;23.00;;;;;22.18;58.89;100568.52;110671;1258;20277;-53
2022/08/01 07:28:45;;;;;;;;;22.33;19.33;;;;;22.12;58.85;100573.30;110734;1258;20059;-56
2022/08/01 07:31:12;;;;;;;;;17.67;16.33;;;;;22.06;58.94;100570.48;110758;1258;19894;-57
2022/08/01 07:33:39;;;;;;;;;19.67;18.00;;;;;22.13;58.74;100569.88;110774;1258;23170;-54
2022/08/01 07:36:07;;;;;;;;;17.00;17.00;;;;;22.22;58.99;100570.83;110716;1258;19336;-55
2022/08/01 07:38:34;;;;;;;;;17.00;15.33;;;;;22.29;58.82;100573.70;110684;1257;19570;-55
2022/08/01 07:41:02;;;;;;;;;19.00;14.67;;;;;22.27;59.06;100574.48;110340;1259;318869;-52
2022/08/01 07:43:29;;;;;;;;;14.00;14.00;;;;;22.09;59.12;100574.35;110571;1258;19552;-54
2022/08/01 07:45:57;;;;;;;;;16.00;14.00;;;;;21.72;59.36;100579.69;110596;1258;20231;-56
2022/08/01 07:48:25;;;;;;;;;17.00;15.33;;;;;21.61;59.58;100574.77;110759;1258;20541;-55
2022/08/01 07:50:52;;;;;;;;;14.00;13.00;;;;;21.47;59.97;100577.54;110736;1257;23231;-56
2022/08/01 07:53:20;;;;;;;;;15.00;15.00;;;;;21.60;59.59;100571.48;110743;1258;19586;-56
2022/08/01 07:55:47;;;;;;;;;16.33;13.33;;;;;21.87;58.97;100572.69;110707;1258;21707;-53
2022/08/01 07:58:15;;;;;;;;;13.00;13.00;;;;;22.09;58.73;100570.02;110668;1258;23585;-54
2022/08/01 08:00:42;;;;;;;;;13.33;13.33;;;;;22.17;58.42;100572.50;110591;1258;19725;-55
2022/08/01 08:03:09;;;;;;;;;16.00;14.50;;;;;22.21;58.16;100576.75;110390;1257;22942;-50
2022/08/01 08:05:37;;;;;;;;;18.00;15.00;;;;;22.27;58.12;100577.04;110595;1258;19218;-54
2022/08/01 08:08:04;;;;;;;;;17.00;15.50;;;;;22.37;58.38;100579.63;110543;1259;19539;-55
2022/08/01 08:10:32;;;;;;;;;15.33;13.67;;;;;22.46;58.35;100577.77;110644;1258;20504;-56
2022/08/01 08:13:00;;;;;;;;;13.33;13.00;;;;;22.43;58.05;100581.55;110647;1258;19186;-59
2022/08/01 08:15:28;;;;;;;;;14.67;14.67;;;;;22.31;57.86;100582.38;110612;1258;19507;-54
2022/08/01 08:17:55;;;;;;;;;14.00;14.00;;;;;22.39;57.70;100584.79;110611;1258;21767;-53
2022/08/01 08:20:24;;;;;;;;;13.00;13.00;;;;;22.43;57.42;100582.05;110728;1257;19278;-53
2022/08/01 08:22:52;;;;;;;;;13.33;13.00;;;;;22.41;57.39;100584.94;110726;1258;24394;-54
2022/08/01 08:25:19;;;;;;;;;14.00;13.00;;;;;22.37;57.69;100587.29;110626;1258;20409;-53
2022/08/01 08:27:47;;;;;;;;;13.00;13.00;;;;;22.34;57.76;100583.63;110773;1258;19171;-53
2022/08/01 08:30:14;;;;;;;;;14.00;13.00;;;;;22.35;57.73;100582.55;110584;1258;22877;-56
2022/08/01 08:32:42;;;;;;;;;17.00;14.67;;;;;22.31;57.66;100579.47;110606;1258;20274;-54
2022/08/01 08:35:09;;;;;;;;;15.00;14.00;;;;;22.38;57.83;100582.08;110619;1258;19366;-57
2022/08/01 08:37:37;;;;;;;;;13.00;13.00;;;;;22.50;57.67;100579.59;110680;1258;19958;-51
2022/08/01 08:40:04;;;;;;;;;14.00;14.00;;;;;22.52;57.70;100576.64;110779;1258;21804;-56
2022/08/01 08:42:32;;;;;;;;;14.33;14.33;;;;;22.52;57.70;100582.97;110803;1258;19269;-52
2022/08/01 08:44:59;;;;;;;;;14.00;13.50;;;;;22.52;57.61;100584.71;110715;1258;20153;-54
2022/08/01 08:47:26;;;;;;;;;16.00;13.50;;;;;22.40;57.37;100583.27;110739;1258;20738;-55
2022/08/01 08:49:54;;;;;;;;;13.33;12.33;;;;;22.35;57.46;100587.92;110782;1258;19311;-53
2022/08/01 08:52:21;;;;;;;;;14.67;14.00;;;;;22.40;57.22;100590.20;110593;1258;19560;-54
2022/08/01 08:54:49;;;;;;;;;11.00;11.00;;;;;22.43;56.92;100592.56;110777;1258;20630;-51
2022/08/01 08:57:16;;;;;;;;;13.00;13.00;;;;;22.44;56.83;100594.30;110753;1257;21387;-53
2022/08/01 08:59:44;;;;;;;;;13.33;12.33;;;;;22.45;56.87;100588.77;110649;1257;19696;-57
2022/08/01 09:02:11;;;;;;;;;11.67;11.00;;;;;22.41;56.74;100593.46;110716;1258;20267;-55
2022/08/01 09:04:40;;;;;;;;;12.33;11.00;;;;;22.44;56.57;100592.02;110809;1258;23193;-55
2022/08/01 09:07:07;;;;;;;;;11.00;11.00;;;;;22.46;56.51;100595.28;110651;1258;22185;-54
2022/08/01 09:09:35;;;;;;;;;10.50;10.50;;;;;22.43;56.48;100593.96;110695;1258;21730;-54
2022/08/01 09:12:02;;;;;;;;;13.00;13.00;;;;;22.43;56.36;100596.89;110675;1258;19156;-53
2022/08/01 09:14:31;;;;;;;;;13.00;11.00;;;;;22.44;56.17;100600.85;110662;1258;21042;-53
2022/08/01 09:16:58;;;;;;;;;11.00;11.00;;;;;22.42;56.12;100599.78;110688;1258;23820;-55
2022/08/01 09:19:26;;;;;;;;;10.67;10.00;;;;;22.45;55.97;100605.19;110620;1258;19409;-54
2022/08/01 09:21:53;;;;;;;;;13.00;10.00;;;;;22.46;56.00;100604.11;110535;1258;19616;-59
2022/08/01 09:24:20;;;;;;;;;14.00;11.00;;;;;22.45;55.92;100604.85;110604;1258;20627;-55
2022/08/01 09:26:48;;;;;;;;;10.33;10.33;;;;;22.44;55.75;100603.91;110570;1259;19117;-54
2022/08/01 09:29:15;;;;;;;;;11.00;11.00;;;;;22.47;55.89;100607.39;110637;1258;21795;-56
2022/08/01 09:31:42;;;;;;;;;10.67;10.33;;;;;22.48;55.97;100610.28;110591;1259;20370;-53
2022/08/01 09:34:10;;;;;;;;;10.00;10.00;;;;;22.48;55.79;100609.42;110607;1258;21069;-54
2022/08/01 09:36:37;;;;;;;;;11.00;11.00;;;;;22.47;55.87;100607.18;110701;1258;22373;-55
2022/08/01 09:39:05;;;;;;;;;9.33;9.33;;;;;22.49;55.95;100605.83;110583;1258;20316;-54
2022/08/01 09:41:32;;;;;;;;;10.50;10.50;;;;;22.52;56.26;100605.82;110484;1259;19051;-53
2022/08/01 09:44:00;;;;;;;;;11.00;9.33;;;;;22.52;55.96;100604.98;110603;1259;20108;-53
2022/08/01 09:46:27;;;;;;;;;13.00;13.00;;;;;22.52;55.98;100607.91;110470;1259;20969;-56
2022/08/01 09:48:54;;;;;;;;;10.00;10.00;;;;;22.52;56.20;100604.85;110556;1258;19251;-58
2022/08/01 09:51:22;;;;;;;;;12.00;12.00;;;;;22.53;56.07;100608.56;110253;1260;19967;-53
2022/08/01 09:53:50;;;;;;;;;31.00;28.00;;;;;22.55;56.00;100608.55;110544;1258;20422;-55
2022/08/01 09:56:17;;;;;;;;;29.33;27.33;;;;;22.56;56.15;100607.85;110614;1259;23458;-55
2022/08/01 09:58:45;;;;;;;;;23.00;22.33;;;;;22.55;56.40;100606.84;110594;1258;19714;-54
2022/08/01 10:01:12;;;;;;;;;47.67;40.00;;;;;22.57;56.50;100606.59;110585;1258;20545;-52
2022/08/01 10:03:40;;;;;;;;;51.00;43.00;;;;;22.60;56.72;100608.20;110637;1259;23036;-54
2022/08/01 10:06:07;;;;;;;;;45.00;40.00;;;;;22.61;56.62;100607.33;110608;1257;19748;-55
2022/08/01 10:08:34;;;;;;;;;40.00;36.00;;;;;22.64;56.60;100606.55;110610;1258;20370;-53
2022/08/01 10:11:02;;;;;;;;;31.00;26.00;;;;;22.64;56.26;100603.12;110589;1258;19340;-53
2022/08/01 10:13:29;;;;;;;;;29.00;26.67;;;;;22.61;56.46;100603.88;110531;1258;19811;-55
2022/08/01 10:15:56;;;;;;;;;27.50;22.00;;;;;22.62;56.91;100603.21;110552;1259;20914;-56
2022/08/01 10:18:24;;;;;;;;;23.33;22.33;;;;;22.62;56.20;100601.98;110488;1259;23000;-58
2022/08/01 10:20:51;;;;;;;;;27.33;23.33;;;;;22.63;56.09;100598.14;110545;1258;19751;-55
2022/08/01 10:23:18;;;;;;;;;38.67;32.00;;;;;22.68;55.93;100597.09;110603;1258;20340;-55
2022/08/01 10:25:46;;;;;;;;;39.67;32.67;;;;;22.71;55.85;100595.95;110582;1258;19255;-57
2022/08/01 10:28:13;;;;;;;;;26.00;23.67;;;;;22.68;55.80;100597.05;110580;1258;23097;-56
2022/08/01 10:30:40;;;;;;;;;22.00;19.67;;;;;22.59;55.58;100593.09;110634;1259;22643;-56
2022/08/01 10:33:08;;;;;;;;;19.00;18.00;;;;;22.59;55.42;100590.52;110578;1259;24148;-53
2022/08/01 10:35:35;;;;;;;;;18.00;15.33;;;;;22.61;55.17;100584.59;110588;1258;19854;-53
2022/08/01 10:38:03;;;;;;;;;18.00;16.00;;;;;22.64;54.89;100587.98;110599;1258;20528;-55
2022/08/01 10:40:30;;;;;;;;;16.00;16.00;;;;;22.68;54.99;100581.59;110595;1258;19365;-54
2022/08/01 10:42:57;;;;;;;;;18.00;17.33;;;;;22.70;54.58;100584.18;110627;1258;23618;-57
2022/08/01 10:45:26;;;;;;;;;15.67;15.00;;;;;22.74;54.36;100585.52;110421;1260;20873;-50
2022/08/01 10:47:53;;;;;;;;;13.67;13.67;;;;;22.75;54.12;100582.63;110586;1258;21383;-55
2022/08/01 10:50:23;;;;;;;;;18.33;16.00;;;;;22.75;53.81;100579.95;110579;1258;19585;-56
2022/08/01 10:52:50;;;;;;;;;14.00;13.00;;;;;22.81;53.84;100576.77;110629;1258;20498;-54
2022/08/01 10:55:17;;;;;;;;;12.00;12.00;;;;;22.88;53.52;100575.06;110583;1258;19040;-55
2022/08/01 10:57:45;;;;;;;;;11.00;11.00;;;;;22.89;53.38;100571.77;110661;1259;19433;-53
2022/08/01 11:00:12;;;;;;;;;12.00;11.00;;;;;22.86;53.38;100572.71;110582;1258;20394;-54
2022/08/01 11:02:43;;;;;;;;;12.00;11.00;;;;;22.86;53.43;100569.77;110614;1258;19440;-53